Time;durP1;ratioP1;P1;durP2;ratioP2;P2;SDS_P1;SDS_P2;PMS_P1;PMS_P2;Temp;Humidity;BMP_temperature;BMP_pressure;BME280_temperature;BME280_humidity;BME280_pressure;Samples;Min_cycle;Max_cycle;Signal;HPM_P1;HPM_P2
2022/03/31 00:00:28;;;;;;;;;;;;;;;;;;5049869;28;1247;-67
2022/03/31 00:02:56;;;;;;;;;;;;;;;;;;5051598;28;1049;-67
2022/03/31 00:05:22;;;;;;;;;;;;;;;;;;5050364;28;1411;-68
2022/03/31 00:07:49;;;;;;;;;;;;;;;;;;5049960;28;1119;-67
2022/03/31 00:10:19;;;;;;;;;;;;;;;;;;5050214;28;1926;-67
2022/03/31 00:12:45;;;;;;;;;;;;;;;;;;5050527;28;1375;-68
2022/03/31 00:15:12;;;;;;;;;;;;;;;;;;5050524;28;1340;-68
2022/03/31 00:17:38;;;;;;;;;;;;;;;;;;5051538;28;727;-67
2022/03/31 00:20:07;;;;;;;;;;;;;;;;;;5050124;28;1156;-68
2022/03/31 00:22:34;;;;;;;;;;;;;;;;;;5050230;28;1140;-67
2022/03/31 00:25:00;;;;;;;;;;;;;;;;;;5049896;28;1464;-67
2022/03/31 00:27:26;;;;;;;;;;;;;;;;;;5050026;28;1266;-67
2022/03/31 00:29:52;;;;;;;;;;;;;;;;;;5050007;28;1914;-67
2022/03/31 00:32:19;;;;;;;;;;;;;;;;;;5050101;28;1304;-66
2022/03/31 00:34:45;;;;;;;;;;;;;;;;;;5050055;28;1313;-67
2022/03/31 00:37:13;;;;;;;;;;;;;;;;;;5049311;28;1293;-67
2022/03/31 00:39:39;;;;;;;;;;;;;;;;;;5049914;28;1187;-67
2022/03/31 00:42:06;;;;;;;;;;;;;;;;;;5049686;28;1293;-67
2022/03/31 00:44:32;;;;;;;;;;;;;;;;;;5049579;28;1286;-67
2022/03/31 00:46:58;;;;;;;;;;;;;;;;;;5049569;28;1156;-68
2022/03/31 00:49:25;;;;;;;;;;;;;;;;;;5049420;28;1973;-68
2022/03/31 00:51:52;;;;;;;;;;;;;;;;;;5051111;28;845;-68
2022/03/31 00:54:20;;;;;;;;;;;;;;;;;;5049146;28;1404;-67
2022/03/31 00:56:47;;;;;;;;;;;;;;;;;;5049062;28;2380;-68
2022/03/31 00:59:13;;;;;;;;;;;;;;;;;;5049774;28;1182;-68
2022/03/31 01:01:40;;;;;;;;;;;;;;;;;;5049505;28;1318;-68
2022/03/31 01:04:06;;;;;;;;;;;;;;;;;;5049469;28;1333;-68
2022/03/31 01:06:32;;;;;;;;;;;;;;;;;;5049001;28;1147;-68
2022/03/31 01:08:59;;;;;;;;;;;;;;;;;;5049487;28;1140;-68
2022/03/31 01:11:26;;;;;;;;;;;;;;;;;;5050439;28;1914;-67
2022/03/31 01:13:53;;;;;;;;;;;;;;;;;;5049301;28;1373;-68
2022/03/31 01:16:19;;;;;;;;;;;;;;;;;;5048783;28;1155;-68
2022/03/31 01:18:46;;;;;;;;;;;;;;;;;;5049521;28;1572;-68
2022/03/31 01:21:12;;;;;;;;;;;;;;;;;;5048954;28;1152;-68
2022/03/31 01:23:40;;;;;;;;;;;;;;;;;;5048788;28;1495;-67
2022/03/31 01:26:08;;;;;;;;;;;;;;;;;;5049080;28;1510;-66
2022/03/31 01:28:35;;;;;;;;;;;;;;;;;;5049021;28;1271;-68
2022/03/31 01:31:01;;;;;;;;;;;;;;;;;;5048508;28;1903;-67
2022/03/31 01:33:28;;;;;;;;;;;;;;;;;;5049072;28;1127;-68
2022/03/31 01:35:54;;;;;;;;;;;;;;;;;;5048933;28;1400;-68
2022/03/31 01:38:20;;;;;;;;;;;;;;;;;;5049751;28;1254;-68
2022/03/31 01:40:48;;;;;;;;;;;;;;;;;;5048588;28;1420;-68
2022/03/31 01:43:14;;;;;;;;;;;;;;;;;;5048969;28;1146;-68
2022/03/31 01:45:41;;;;;;;;;;;;;;;;;;5050005;28;1315;-69
2022/03/31 01:48:07;;;;;;;;;;;;;;;;;;5050031;28;1226;-69
2022/03/31 01:50:34;;;;;;;;;;;;;;;;;;5053667;28;1942;-68
2022/03/31 01:53:00;;;;;;;;;;;;;;;;;;5054639;28;1329;-69
2022/03/31 01:55:26;;;;;;;;;;;;;;;;;;5056567;28;1392;-68
2022/03/31 01:57:55;;;;;;;;;;;;;;;;;;5054196;28;1121;-68
2022/03/31 02:00:21;;;;;;;;;;;;;;;;;;5052498;28;1298;-68
2022/03/31 02:02:47;;;;;;;;;;;;;;;;;;5052959;28;1143;-69
2022/03/31 02:05:14;;;;;;;;;;;;;;;;;;5053957;28;1278;-68
2022/03/31 02:07:40;;;;;;;;;;;;;;;;;;5052645;28;1175;-69
2022/03/31 02:10:08;;;;;;;;;;;;;;;;;;5052126;28;1910;-68
2022/03/31 02:12:35;;;;;;;;;;;;;;;;;;5052548;28;1247;-69
2022/03/31 02:15:03;;;;;;;;;;;;;;;;;;5053907;28;1280;-67
2022/03/31 02:17:29;;;;;;;;;;;;;;;;;;5052377;28;1424;-69
2022/03/31 02:19:55;;;;;;;;;;;;;;;;;;5052531;28;1341;-69
2022/03/31 02:22:22;;;;;;;;;;;;;;;;;;5052449;28;1325;-68
2022/03/31 02:24:49;;;;;;;;;;;;;;;;;;5052242;28;1414;-68
2022/03/31 02:27:15;;;;;;;;;;;;;;;;;;5052330;28;1184;-69
2022/03/31 02:29:41;;;;;;;;;;;;;;;;;;5052306;28;1977;-68
2022/03/31 02:32:09;;;;;;;;;;;;;;;;;;5052353;28;1215;-68
2022/03/31 02:34:36;;;;;;;;;;;;;;;;;;5053330;28;1391;-69
2022/03/31 02:37:02;;;;;;;;;;;;;;;;;;5052051;28;1182;-68
2022/03/31 02:39:29;;;;;;;;;;;;;;;;;;5051452;28;2204;-68
2022/03/31 02:41:57;;;;;;;;;;;;;;;;;;5051911;28;1130;-68
2022/03/31 02:44:23;;;;;;;;;;;;;;;;;;5051931;28;1254;-69
2022/03/31 02:46:51;;;;;;;;;;;;;;;;;;5051533;28;1163;-69
2022/03/31 02:49:18;;;;;;;;;;;;;;;;;;5051764;28;1213;-69
2022/03/31 02:51:45;;;;;;;;;;;;;;;;;;5051836;28;1922;-68
2022/03/31 02:56:55;;;;;;;;;;;;;;;;;;5051560;28;1235;-68
2022/03/31 02:59:22;;;;;;;;;;;;;;;;;;5051333;28;1318;-69
2022/03/31 03:01:48;;;;;;;;;;;;;;;;;;5051797;28;1186;-69
2022/03/31 03:04:14;;;;;;;;;;;;;;;;;;5051267;28;1302;-68
2022/03/31 03:06:42;;;;;;;;;;;;;;;;;;5051342;28;1309;-69
2022/03/31 03:09:08;;;;;;;;;;;;;;;;;;5051600;28;1226;-68
2022/03/31 03:11:35;;;;;;;;;;;;;;;;;;5051485;28;1914;-69
2022/03/31 03:14:01;;;;;;;;;;;;;;;;;;5051435;28;1341;-67
2022/03/31 03:16:27;;;;;;;;;;;;;;;;;;5051085;28;1339;-68
2022/03/31 03:18:54;;;;;;;;;;;;;;;;;;5052533;28;907;-69
2022/03/31 03:21:20;;;;;;;;;;;;;;;;;;5050780;28;1450;-67
2022/03/31 03:23:48;;;;;;;;;;;;;;;;;;5049487;28;2087;-68
2022/03/31 03:26:15;;;;;;;;;;;;;;;;;;5052023;28;1126;-69
2022/03/31 03:28:41;;;;;;;;;;;;;;;;;;5050880;28;1374;-68
2022/03/31 03:31:08;;;;;;;;;;;;;;;;;;5051331;28;1914;-68
2022/03/31 03:33:34;;;;;;;;;;;;;;;;;;5051328;28;1261;-68
2022/03/31 03:36:01;;;;;;;;;;;;;;;;;;5050913;28;1344;-68
2022/03/31 03:38:27;;;;;;;;;;;;;;;;;;5050869;28;1107;-69
2022/03/31 03:40:55;;;;;;;;;;;;;;;;;;5050758;28;1210;-68
2022/03/31 03:43:21;;;;;;;;;;;;;;;;;;5052349;28;998;-69
2022/03/31 03:45:47;;;;;;;;;;;;;;;;;;5050991;28;1344;-68
2022/03/31 03:48:13;;;;;;;;;;;;;;;;;;5050554;28;1123;-69
2022/03/31 03:50:40;;;;;;;;;;;;;;;;;;5050799;28;1969;-66
2022/03/31 03:53:06;;;;;;;;;;;;;;;;;;5049800;28;1464;-69
2022/03/31 03:55:34;;;;;;;;;;;;;;;;;;5050742;28;1316;-67
2022/03/31 03:58:01;;;;;;;;;;;;;;;;;;5050324;28;1110;-69
2022/03/31 04:00:28;;;;;;;;;;;;;;;;;;5051889;28;776;-68
2022/03/31 04:02:54;;;;;;;;;;;;;;;;;;5050125;28;1579;-69
2022/03/31 04:05:21;;;;;;;;;;;;;;;;;;5050230;28;1591;-70
2022/03/31 04:07:47;;;;;;;;;;;;;;;;;;5050226;28;1361;-67
2022/03/31 04:10:13;;;;;;;;;;;;;;;;;;5050715;28;1914;-69
2022/03/31 04:12:40;;;;;;;;;;;;;;;;;;5050092;28;1590;-68
2022/03/31 04:15:08;;;;;;;;;;;;;;;;;;5049901;28;1811;-69
2022/03/31 04:17:35;;;;;;;;;;;;;;;;;;5047665;28;1602;-69
2022/03/31 04:20:01;;;;;;;;;;;;;;;;;;5049743;28;1594;-67
2022/03/31 04:22:28;;;;;;;;;;;;;;;;;;5049752;28;1503;-68
2022/03/31 04:24:54;;;;;;;;;;;;;;;;;;5049515;28;1599;-69
2022/03/31 04:27:20;;;;;;;;;;;;;;;;;;5049459;28;1244;-67
2022/03/31 04:29:47;;;;;;;;;;;;;;;;;;5048479;28;1587;-67
2022/03/31 04:32:14;;;;;;;;;;;;;;;;;;5049640;28;1993;-68
2022/03/31 04:34:41;;;;;;;;;;;;;;;;;;5049650;28;1364;-68
2022/03/31 04:37:07;;;;;;;;;;;;;;;;;;5049534;28;1155;-69
2022/03/31 04:39:33;;;;;;;;;;;;;;;;;;5050830;28;753;-68
2022/03/31 04:42:00;;;;;;;;;;;;;;;;;;5048888;28;1332;-68
2022/03/31 04:44:26;;;;;;;;;;;;;;;;;;5049134;28;1362;-68
2022/03/31 04:46:52;;;;;;;;;;;;;;;;;;5049113;28;1347;-68
2022/03/31 04:49:20;;;;;;;;;;;;;;;;;;5049750;28;1126;-68
2022/03/31 04:51:46;;;;;;;;;;;;;;;;;;5049428;28;1968;-69
2022/03/31 04:54:12;;;;;;;;;;;;;;;;;;5049189;28;1328;-69
2022/03/31 04:56:39;;;;;;;;;;;;;;;;;;5048938;28;1275;-69
2022/03/31 04:59:05;;;;;;;;;;;;;;;;;;5048719;28;1357;-68
2022/03/31 05:01:32;;;;;;;;;;;;;;;;;;5049215;28;1355;-71
2022/03/31 05:03:59;;;;;;;;;;;;;;;;;;5048972;28;1410;-70
2022/03/31 05:06:26;;;;;;;;;;;;;;;;;;5050768;28;1310;-69
2022/03/31 05:08:52;;;;;;;;;;;;;;;;;;5051707;28;1143;-69
2022/03/31 05:11:19;;;;;;;;;;;;;;;;;;5049470;28;1977;-67
2022/03/31 05:13:45;;;;;;;;;;;;;;;;;;5049061;28;1452;-69
2022/03/31 05:16:12;;;;;;;;;;;;;;;;;;5049866;28;1189;-69
2022/03/31 05:18:38;;;;;;;;;;;;;;;;;;5049340;28;1336;-69
2022/03/31 05:21:04;;;;;;;;;;;;;;;;;;5045926;28;1542;-68
2022/03/31 05:23:33;;;;;;;;;;;;;;;;;;5032976;28;1655;-68
2022/03/31 05:25:59;;;;;;;;;;;;;;;;;;5048509;28;1442;-68
2022/03/31 05:28:25;;;;;;;;;;;;;;;;;;5048896;28;1309;-69
2022/03/31 05:30:52;;;;;;;;;;;;;;;;;;5049164;28;1922;-68
2022/03/31 05:33:19;;;;;;;;;;;;;;;;;;5048170;28;2066;-68
2022/03/31 05:35:45;;;;;;;;;;;;;;;;;;5048859;28;1411;-69
2022/03/31 05:38:12;;;;;;;;;;;;;;;;;;5065403;28;1175;-69
2022/03/31 05:40:39;;;;;;;;;;;;;;;;;;5047051;28;1147;-69
2022/03/31 05:43:06;;;;;;;;;;;;;;;;;;5047568;28;1171;-69
2022/03/31 05:45:32;;;;;;;;;;;;;;;;;;5047892;28;1344;-70
2022/03/31 05:47:58;;;;;;;;;;;;;;;;;;5047469;28;1179;-67
2022/03/31 05:50:25;;;;;;;;;;;;;;;;;;5048861;28;1094;-69
2022/03/31 05:52:51;;;;;;;;;;;;;;;;;;5063749;28;1977;-69
2022/03/31 05:55:19;;;;;;;;;;;;;;;;;;5048459;28;1316;-69
2022/03/31 05:57:46;;;;;;;;;;;;;;;;;;5065106;28;1332;-69
2022/03/31 06:00:13;;;;;;;;;;;;;;;;;;5048563;28;1127;-71
2022/03/31 06:02:40;;;;;;;;;;;;;;;;;;5065342;28;1176;-69
2022/03/31 06:05:07;;;;;;;;;;;;;;;;;;5048807;28;1298;-69
2022/03/31 06:07:33;;;;;;;;;;;;;;;;;;5049920;28;982;-70
2022/03/31 06:09:59;;;;;;;;;;;;;;;;;;5047951;28;1364;-69
2022/03/31 06:12:26;;;;;;;;;;;;;;;;;;5065365;28;1975;-69
2022/03/31 06:14:53;;;;;;;;;;;;;;;;;;5048541;28;1387;-68
2022/03/31 06:17:20;;;;;;;;;;;;;;;;;;5048629;28;1632;-70
2022/03/31 06:19:46;;;;;;;;;;;;;;;;;;5048559;28;1172;-70
2022/03/31 06:22:12;;;;;;;;;;;;;;;;;;5049024;28;1286;-69
2022/03/31 06:24:38;;;;;;;;;;;;;;;;;;5065106;28;1316;-69
2022/03/31 06:27:07;;;;;;;;;;;;;;;;;;5048953;28;817;-69
2022/03/31 06:29:34;;;;;;;;;;;;;;;;;;5048911;28;1270;-69
2022/03/31 06:32:02;;;;;;;;;;;;;;;;;;5049737;28;1914;-69
2022/03/31 06:34:28;;;;;;;;;;;;;;;;;;5050148;28;1407;-68
2022/03/31 06:36:55;;;;;;;;;;;;;;;;;;5053284;28;849;-68
2022/03/31 06:39:21;;;;;;;;;;;;;;;;;;5051836;28;1332;-69
2022/03/31 06:41:48;;;;;;;;;;;;;;;;;;5068758;28;1175;-69
2022/03/31 06:44:16;;;;;;;;;;;;;;;;;;5051896;28;1322;-69
2022/03/31 06:46:42;;;;;;;;;;;;;;;;;;5051731;28;1325;-67
2022/03/31 06:49:10;;;;;;;;;;;;;;;;;;5051909;28;1141;-68
2022/03/31 06:51:36;;;;;;;;;;;;;;;;;;5051926;28;1975;-70
2022/03/31 06:54:03;;;;;;;;;;;;;;;;;;5051515;28;1441;-69
2022/03/31 06:56:29;;;;;;;;;;;;;;;;;;5040181;28;1599;-69
2022/03/31 06:58:55;;;;;;;;;;;;;;;;;;5029144;28;1321;-70
2022/03/31 07:01:22;;;;;;;;;;;;;;;;;;5051205;28;1587;-69
2022/03/31 07:03:48;;;;;;;;;;;;;;;;;;5050889;28;1570;-68
2022/03/31 07:06:16;;;;;;;;;;;;;;;;;;5050568;28;1713;-68
2022/03/31 07:08:42;;;;;;;;;;;;;;;;;;5050628;28;1597;-69
2022/03/31 07:11:09;;;;;;;;;;;;;;;;;;5050830;28;1587;-68
2022/03/31 07:13:36;;;;;;;;;;;;;;;;;;5050760;28;1218;-70
2022/03/31 07:16:02;;;;;;;;;;;;;;;;;;5050960;28;1410;-69
2022/03/31 07:18:28;;;;;;;;;;;;;;;;;;5050803;28;1354;-69
2022/03/31 07:20:57;;;;;;;;;;;;;;;;;;5050418;28;1629;-70
2022/03/31 07:23:25;;;;;;;;;;;;;;;;;;5049311;28;1629;-69
2022/03/31 07:25:52;;;;;;;;;;;;;;;;;;5048459;28;1496;-69
2022/03/31 07:28:18;;;;;;;;;;;;;;;;;;5045535;28;1227;-69
2022/03/31 07:30:44;;;;;;;;;;;;;;;;;;5051910;28;809;-68
2022/03/31 07:33:10;;;;;;;;;;;;;;;;;;5050298;28;1922;-69
2022/03/31 07:35:38;;;;;;;;;;;;;;;;;;5050660;28;1380;-69
2022/03/31 07:38:07;;;;;;;;;;;;;;;;;;5049895;28;1602;-69
2022/03/31 07:40:36;;;;;;;;;;;;;;;;;;5069494;23;3481;-70
2022/03/31 07:43:02;;;;;;;;;;;;;;;;;;5073371;28;1280;-70
2022/03/31 07:45:29;;;;;;;;;;;;;;;;;;5069848;28;1925;-70
2022/03/31 07:47:55;;;;;;;;;;;;;;;;;;5070714;28;1077;-70
2022/03/31 07:50:22;;;;;;;;;;;;;;;;;;5072012;28;1289;-70
2022/03/31 07:52:48;;;;;;;;;;;;;;;;;;5071224;28;2005;-71
2022/03/31 07:55:15;;;;;;;;;;;;;;;;;;5071601;28;1407;-70
2022/03/31 07:57:42;;;;;;;;;;;;;;;;;;5070338;28;982;-71
2022/03/31 08:00:09;;;;;;;;;;;;;;;;;;5072374;28;1294;-70
2022/03/31 08:02:39;;;;;;;;;;;;;;;;;;5073053;28;1565;-71
2022/03/31 08:05:05;;;;;;;;;;;;;;;;;;5072898;28;1462;-71
2022/03/31 08:07:32;;;;;;;;;;;;;;;;;;5071075;28;1645;-70
2022/03/31 08:09:58;;;;;;;;;;;;;;;;;;5070700;28;1337;-71
2022/03/31 08:12:24;;;;;;;;;;;;;;;;;;5071382;28;2005;-71
2022/03/31 08:14:52;;;;;;;;;;;;;;;;;;5070700;28;1573;-70
2022/03/31 08:17:19;;;;;;;;;;;;;;;;;;5055012;28;1558;-71
2022/03/31 08:19:47;;;;;;;;;;;;;;;;;;5070763;28;1552;-71
2022/03/31 08:22:13;;;;;;;;;;;;;;;;;;5071249;28;1073;-72
2022/03/31 08:24:39;;;;;;;;;;;;;;;;;;5070735;28;1073;-71
2022/03/31 08:27:06;;;;;;;;;;;;;;;;;;5067122;28;1649;-71
2022/03/31 08:29:33;;;;;;;;;;;;;;;;;;5070047;28;1262;-70
2022/03/31 08:32:01;;;;;;;;;;;;;;;;;;5070488;28;2007;-71
2022/03/31 08:34:27;;;;;;;;;;;;;;;;;;5070273;28;1653;-70
2022/03/31 08:36:54;;;;;;;;;;;;;;;;;;5069637;28;1122;-71
2022/03/31 08:39:20;;;;;;;;;;;;;;;;;;5070259;28;1380;-71
2022/03/31 08:41:46;;;;;;;;;;;;;;;;;;5070497;28;1637;-72
2022/03/31 08:44:13;;;;;;;;;;;;;;;;;;5070992;28;1122;-72
2022/03/31 08:46:39;;;;;;;;;;;;;;;;;;5051780;28;1569;-72
2022/03/31 08:49:07;;;;;;;;;;;;;;;;;;5069964;28;1806;-70
2022/03/31 08:51:34;;;;;;;;;;;;;;;;;;5071129;28;1054;-70
2022/03/31 08:54:00;;;;;;;;;;;;;;;;;;5069863;28;1985;-69
2022/03/31 08:56:26;;;;;;;;;;;;;;;;;;5070172;28;1069;-70
2022/03/31 08:58:52;;;;;;;;;;;;;;;;;;5070931;28;1456;-70
2022/03/31 09:01:19;;;;;;;;;;;;;;;;;;5070909;28;1655;-70
2022/03/31 09:03:45;;;;;;;;;;;;;;;;;;5070522;28;1333;-69
2022/03/31 09:06:22;;;;;;;;;;;;;;;;;;5069767;28;1647;-69
2022/03/31 09:08:54;;;;;;;;;;;;;;;;;;5063076;28;1689;-69
2022/03/31 09:11:25;;;;;;;;;;;;;;;;;;5070603;28;1487;-69
2022/03/31 09:13:54;;;;;;;;;;;;;;;;;;5069834;28;1983;-69
2022/03/31 09:16:20;;;;;;;;;;;;;;;;;;5069565;28;1632;-69
2022/03/31 09:18:46;;;;;;;;;;;;;;;;;;5068649;28;1663;-69
2022/03/31 09:21:12;;;;;;;;;;;;;;;;;;5070540;28;1649;-69
2022/03/31 09:23:42;;;;;;;;;;;;;;;;;;5070071;28;1094;-68
2022/03/31 09:26:10;;;;;;;;;;;;;;;;;;5068441;28;1276;-68
2022/03/31 09:28:36;;;;;;;;;;;;;;;;;;5044763;28;1428;-68
2022/03/31 09:31:03;;;;;;;;;;;;;;;;;;5068355;28;1299;-70
2022/03/31 09:33:31;;;;;;;;;;;;;;;;;;5069021;28;1910;-69
2022/03/31 09:35:58;;;;;;;;;;;;;;;;;;5058590;28;944;-69
2022/03/31 09:38:24;;;;;;;;;;;;;;;;;;5066645;28;1550;-70
2022/03/31 09:40:52;;;;;;;;;;;;;;;;;;5069795;28;1403;-70
2022/03/31 09:43:18;;;;;;;;;;;;;;;;;;5070039;28;1546;-69
2022/03/31 09:45:45;;;;;;;;;;;;;;;;;;5069694;28;1376;-70
2022/03/31 09:48:17;;;;;;;;;;;;;;;;;;5068817;28;1542;-69
2022/03/31 09:50:43;;;;;;;;;;;;;;;;;;5070117;28;1314;-69
2022/03/31 09:53:09;;;;;;;;;;;;;;;;;;5052192;28;1989;-69
2022/03/31 09:55:36;;;;;;;;;;;;;;;;;;5069146;28;977;-69
2022/03/31 09:58:03;;;;;;;;;;;;;;;;;;5051030;28;1185;-70
2022/03/31 10:00:30;;;;;;;;;;;;;;;;;;5069062;28;1328;-69
2022/03/31 10:02:56;;;;;;;;;;;;;;;;;;5069426;28;1562;-69
2022/03/31 10:05:22;;;;;;;;;;;;;;;;;;5069779;28;1501;-69
2022/03/31 10:07:50;;;;;;;;;;;;;;;;;;5069332;28;1074;-69
2022/03/31 10:10:17;;;;;;;;;;;;;;;;;;5054661;28;1444;-69
2022/03/31 10:12:43;;;;;;;;;;;;;;;;;;5055231;28;1914;-69
2022/03/31 10:15:12;;;;;;;;;;;;;;;;;;5073160;28;1624;-70
2022/03/31 10:17:38;;;;;;;;;;;;;;;;;;5073608;28;955;-70
2022/03/31 10:20:08;;;;;;;;;;;;;;;;;;5072667;28;1617;-69
2022/03/31 10:25:18;;;;;;;;;;;;;;;;;;5073500;28;1102;-70
2022/03/31 10:27:46;;;;;;;;;;;;;;;;;;5073393;28;1031;-70
2022/03/31 10:30:15;;;;;;;;;;;;;;;;;;5073241;28;1276;-70
2022/03/31 10:32:52;;;;;;;;;;;;;;;;;;5072532;28;1923;-70
2022/03/31 10:35:22;;;;;;;;;;;;;;;;;;5072994;28;1363;-70
2022/03/31 10:37:48;;;;;;;;;;;;;;;;;;5072949;28;1062;-70
2022/03/31 10:40:16;;;;;;;;;;;;;;;;;;5073029;28;1407;-70
2022/03/31 10:42:43;;;;;;;;;;;;;;;;;;5072816;28;940;-70
2022/03/31 10:45:12;;;;;;;;;;;;;;;;;;5072379;28;1558;-70
2022/03/31 10:47:40;;;;;;;;;;;;;;;;;;5072806;28;1066;-70
2022/03/31 10:50:08;;;;;;;;;;;;;;;;;;5073690;28;1434;-70
2022/03/31 10:52:34;;;;;;;;;;;;;;;;;;5073704;28;1967;-70
2022/03/31 10:55:05;;;;;;;;;;;;;;;;;;5073032;28;1601;-69
2022/03/31 10:57:37;;;;;;;;;;;;;;;;;;5076121;28;954;-69
2022/03/31 11:00:07;;;;;;;;;;;;;;;;;;5079322;28;1330;-70
2022/03/31 11:02:39;;;;;;;;;;;;;;;;;;5076545;28;1143;-68
2022/03/31 11:05:07;;;;;;;;;;;;;;;;;;5072339;28;1581;-69
2022/03/31 11:07:33;;;;;;;;;;;;;;;;;;5073074;28;1617;-70
2022/03/31 11:10:00;;;;;;;;;;;;;;;;;;5073018;28;1379;-70
2022/03/31 11:12:28;;;;;;;;;;;;;;;;;;5072870;28;1918;-69
2022/03/31 11:14:55;;;;;;;;;;;;;;;;;;5052622;28;1054;-69
2022/03/31 11:17:22;;;;;;;;;;;;;;;;;;5072686;28;1100;-69
2022/03/31 11:19:48;;;;;;;;;;;;;;;;;;5072528;28;1359;-69
2022/03/31 11:22:20;;;;;;;;;;;;;;;;;;5072755;28;1644;-69
2022/03/31 11:24:46;;;;;;;;;;;;;;;;;;5069067;28;1645;-69
2022/03/31 11:27:12;;;;;;;;;;;;;;;;;;5072589;28;1558;-69
2022/03/31 11:29:38;;;;;;;;;;;;;;;;;;5071756;28;1542;-69
2022/03/31 11:32:05;;;;;;;;;;;;;;;;;;5071825;28;1514;-70
2022/03/31 11:34:31;;;;;;;;;;;;;;;;;;5071362;28;1906;-69
2022/03/31 11:36:58;;;;;;;;;;;;;;;;;;5072208;28;1614;-70
2022/03/31 11:39:28;;;;;;;;;;;;;;;;;;5072206;28;1632;-69
2022/03/31 11:41:54;;;;;;;;;;;;;;;;;;5071923;28;1625;-69
2022/03/31 11:44:20;;;;;;;;;;;;;;;;;;5071608;28;1364;-69
2022/03/31 11:46:48;;;;;;;;;;;;;;;;;;5071905;28;1046;-69
2022/03/31 11:49:15;;;;;;;;;;;;;;;;;;5072031;28;1439;-70
2022/03/31 11:51:41;;;;;;;;;;;;;;;;;;5071226;28;1340;-70
2022/03/31 11:54:08;;;;;;;;;;;;;;;;;;5071390;28;1939;-69
2022/03/31 11:56:35;;;;;;;;;;;;;;;;;;5070858;28;1096;-70
2022/03/31 11:59:03;;;;;;;;;;;;;;;;;;5071184;28;1412;-69
2022/03/31 12:01:32;;;;;;;;;;;;;;;;;;5071164;28;1113;-70
2022/03/31 12:03:58;;;;;;;;;;;;;;;;;;5071423;28;1054;-69
2022/03/31 12:06:24;;;;;;;;;;;;;;;;;;5053234;28;1503;-69
2022/03/31 12:08:50;;;;;;;;;;;;;;;;;;5067422;28;1532;-69
2022/03/31 12:11:17;;;;;;;;;;;;;;;;;;5070664;28;1171;-69
2022/03/31 12:13:48;;;;;;;;;;;;;;;;;;5053222;28;1918;-69
2022/03/31 12:16:15;;;;;;;;;;;;;;;;;;5070745;28;993;-69
2022/03/31 12:18:43;;;;;;;;;;;;;;;;;;5072131;28;1341;-69
2022/03/31 12:21:10;;;;;;;;;;;;;;;;;;5054689;28;1358;-69
2022/03/31 12:23:40;;;;;;;;;;;;;;;;;;5071760;28;1106;-69
2022/03/31 12:26:11;;;;;;;;;;;;;;;;;;5070636;28;935;-68
2022/03/31 12:28:41;;;;;;;;;;;;;;;;;;5071063;28;1336;-68
2022/03/31 12:31:18;;;;;;;;;;;;;;;;;;5070511;28;1201;-69
2022/03/31 12:33:47;;;;;;;;;;;;;;;;;;5071242;28;1929;-68
2022/03/31 12:36:13;;;;;;;;;;;;;;;;;;5070757;28;1078;-68
2022/03/31 12:38:41;;;;;;;;;;;;;;;;;;5071329;28;1315;-68
2022/03/31 12:41:08;;;;;;;;;;;;;;;;;;5071142;28;922;-70
2022/03/31 12:43:34;;;;;;;;;;;;;;;;;;5071034;28;1011;-69
2022/03/31 12:46:13;;;;;;;;;;;;;;;;;;5052577;28;1143;-69
2022/03/31 12:48:50;;;;;;;;;;;;;;;;;;5070979;28;1407;-68
2022/03/31 12:51:16;;;;;;;;;;;;;;;;;;5053181;28;1002;-69
2022/03/31 12:53:42;;;;;;;;;;;;;;;;;;5052782;28;1910;-69
2022/03/31 12:56:09;;;;;;;;;;;;;;;;;;5070888;28;951;-69
2022/03/31 12:58:35;;;;;;;;;;;;;;;;;;5071922;28;983;-69
2022/03/31 13:01:01;;;;;;;;;;;;;;;;;;5072116;28;1370;-69
2022/03/31 13:03:29;;;;;;;;;;;;;;;;;;5071740;28;1073;-71
2022/03/31 13:05:55;;;;;;;;;;;;;;;;;;5071001;28;931;-69
2022/03/31 13:08:22;;;;;;;;;;;;;;;;;;5071459;28;896;-69
2022/03/31 13:10:48;;;;;;;;;;;;;;;;;;5071463;28;1282;-69
2022/03/31 13:13:14;;;;;;;;;;;;;;;;;;5070634;28;1906;-69
2022/03/31 13:15:40;;;;;;;;;;;;;;;;;;5070241;28;959;-68
2022/03/31 13:18:07;;;;;;;;;;;;;;;;;;5070456;28;768;-68
2022/03/31 13:20:35;;;;;;;;;;;;;;;;;;5070191;28;1389;-68
2022/03/31 13:23:01;;;;;;;;;;;;;;;;;;5070600;28;1082;-69
2022/03/31 13:25:27;;;;;;;;;;;;;;;;;;5070897;28;768;-70
2022/03/31 13:27:53;;;;;;;;;;;;;;;;;;5070267;28;1518;-67
2022/03/31 13:30:21;;;;;;;;;;;;;;;;;;5070198;28;1912;-69
2022/03/31 13:32:47;;;;;;;;;;;;;;;;;;5070036;28;772;-69
2022/03/31 13:35:13;;;;;;;;;;;;;;;;;;5069669;28;1914;-68
2022/03/31 13:37:41;;;;;;;;;;;;;;;;;;5070070;28;1069;-69
2022/03/31 13:40:08;;;;;;;;;;;;;;;;;;5070133;28;1282;-69
2022/03/31 13:42:37;;;;;;;;;;;;;;;;;;5079035;22;2617;-70
2022/03/31 13:45:05;;;;;;;;;;;;;;;;;;5073788;28;1113;-71
2022/03/31 13:47:31;;;;;;;;;;;;;;;;;;5073469;28;1101;-69
2022/03/31 13:49:57;;;;;;;;;;;;;;;;;;5074456;28;958;-70
2022/03/31 13:52:24;;;;;;;;;;;;;;;;;;5071668;28;1368;-70
2022/03/31 13:54:52;;;;;;;;;;;;;;;;;;5053881;28;1906;-69
2022/03/31 14:02:46;;;;;;;;;;;;;;;;;;5053275;28;1594;-70
2022/03/31 14:05:13;;;;;;;;;;;;;;;;;;5053526;28;1573;-69
2022/03/31 14:07:39;;;;;;;;;;;;;;;;;;5052772;28;1553;-71
2022/03/31 14:10:07;;;;;;;;;;;;;;;;;;5052789;28;1403;-71
2022/03/31 14:12:33;;;;;;;;;;;;;;;;;;5052630;28;1406;-69
2022/03/31 14:15:00;;;;;;;;;;;;;;;;;;5052885;28;1906;-67
2022/03/31 14:17:26;;;;;;;;;;;;;;;;;;5051954;28;1454;-70
2022/03/31 14:19:52;;;;;;;;;;;;;;;;;;5053352;28;1139;-70
2022/03/31 14:22:18;;;;;;;;;;;;;;;;;;5053356;28;1612;-70
2022/03/31 14:24:45;;;;;;;;;;;;;;;;;;5052030;28;1644;-70
2022/03/31 14:27:12;;;;;;;;;;;;;;;;;;5053597;28;1593;-71
2022/03/31 14:29:40;;;;;;;;;;;;;;;;;;5053351;28;1517;-70
2022/03/31 14:32:07;;;;;;;;;;;;;;;;;;5046121;28;1375;-70
2022/03/31 14:34:33;;;;;;;;;;;;;;;;;;5048073;28;1910;-70
2022/03/31 14:36:59;;;;;;;;;;;;;;;;;;5050195;28;1364;-69
2022/03/31 14:39:26;;;;;;;;;;;;;;;;;;5049427;28;1599;-68
2022/03/31 14:41:53;;;;;;;;;;;;;;;;;;5049941;28;1534;-70
2022/03/31 14:44:24;;;;;;;;;;;;;;;;;;5051095;28;1462;-69
2022/03/31 14:46:50;;;;;;;;;;;;;;;;;;5048789;28;1478;-70
2022/03/31 14:49:17;;;;;;;;;;;;;;;;;;5049938;28;1348;-70
2022/03/31 14:51:45;;;;;;;;;;;;;;;;;;5050794;28;1592;-70
2022/03/31 14:54:11;;;;;;;;;;;;;;;;;;5050579;28;1918;-69
2022/03/31 14:56:37;;;;;;;;;;;;;;;;;;5050234;28;1601;-69
2022/03/31 14:59:04;;;;;;;;;;;;;;;;;;5050020;28;1167;-70
2022/03/31 15:01:31;;;;;;;;;;;;;;;;;;5048342;28;1415;-69
2022/03/31 15:03:58;;;;;;;;;;;;;;;;;;5050694;28;1428;-69
2022/03/31 15:06:25;;;;;;;;;;;;;;;;;;5049006;28;1546;-71
2022/03/31 15:08:52;;;;;;;;;;;;;;;;;;5049976;28;1703;-69
2022/03/31 15:16:50;;;;;;;;;;;;;;;;;;5049949;28;1592;-68
2022/03/31 15:19:16;;;;;;;;;;;;;;;;;;5050388;28;1315;-68
2022/03/31 15:21:42;;;;;;;;;;;;;;;;;;5050606;28;1479;-69
2022/03/31 15:24:09;;;;;;;;;;;;;;;;;;5049914;28;1471;-68
2022/03/31 15:26:35;;;;;;;;;;;;;;;;;;5050063;28;1550;-69
2022/03/31 15:29:02;;;;;;;;;;;;;;;;;;5050316;28;1581;-69
2022/03/31 15:31:28;;;;;;;;;;;;;;;;;;5049037;28;1310;-69
2022/03/31 15:33:55;;;;;;;;;;;;;;;;;;5049987;28;1946;-69
2022/03/31 15:36:22;;;;;;;;;;;;;;;;;;5046795;28;1554;-68
2022/03/31 15:38:48;;;;;;;;;;;;;;;;;;5048542;28;1233;-70
2022/03/31 15:41:15;;;;;;;;;;;;;;;;;;5050358;28;974;-69
2022/03/31 15:43:41;;;;;;;;;;;;;;;;;;5049947;28;1501;-69
2022/03/31 15:46:07;;;;;;;;;;;;;;;;;;5049351;28;1584;-67
2022/03/31 15:48:33;;;;;;;;;;;;;;;;;;5046566;28;1598;-68
2022/03/31 15:51:01;;;;;;;;;;;;;;;;;;5055922;28;2584;-69
2022/03/31 15:53:27;;;;;;;;;;;;;;;;;;5049247;28;2185;-69
2022/03/31 15:55:53;;;;;;;;;;;;;;;;;;5050069;28;1925;-71
2022/03/31 15:58:20;;;;;;;;;;;;;;;;;;5050663;28;1640;-72
2022/03/31 16:00:46;;;;;;;;;;;;;;;;;;5050193;28;1554;-69
2022/03/31 16:03:13;;;;;;;;;;;;;;;;;;5051806;28;1469;-70
2022/03/31 16:05:39;;;;;;;;;;;;;;;;;;5050478;28;1662;-71
2022/03/31 16:08:07;;;;;;;;;;;;;;;;;;5049895;28;1204;-70
2022/03/31 16:10:33;;;;;;;;;;;;;;;;;;5052015;28;1605;-69
2022/03/31 16:12:59;;;;;;;;;;;;;;;;;;5051804;28;1373;-69
2022/03/31 16:15:25;;;;;;;;;;;;;;;;;;5050869;28;1969;-67
2022/03/31 16:17:53;;;;;;;;;;;;;;;;;;5051439;28;840;-68
2022/03/31 16:20:19;;;;;;;;;;;;;;;;;;5051234;28;1620;-69
2022/03/31 16:22:45;;;;;;;;;;;;;;;;;;5050441;28;1403;-69
2022/03/31 16:25:13;;;;;;;;;;;;;;;;;;5051279;28;1621;-71
2022/03/31 16:27:39;;;;;;;;;;;;;;;;;;5051462;28;1090;-69
2022/03/31 16:30:06;;;;;;;;;;;;;;;;;;5049089;28;1626;-68
2022/03/31 16:32:32;;;;;;;;;;;;;;;;;;5050771;28;1401;-69
2022/03/31 16:34:58;;;;;;;;;;;;;;;;;;5050639;28;1973;-68
2022/03/31 16:37:25;;;;;;;;;;;;;;;;;;5042884;28;1538;-69
2022/03/31 16:39:51;;;;;;;;;;;;;;;;;;5034613;28;1926;-68
2022/03/31 16:42:20;;;;;;;;;;;;;;;;;;5040297;28;1550;-68
2022/03/31 16:44:46;;;;;;;;;;;;;;;;;;5049522;28;1097;-69
2022/03/31 16:47:12;;;;;;;;;;;;;;;;;;5048965;28;1577;-69
2022/03/31 16:49:38;;;;;;;;;;;;;;;;;;5049829;28;836;-68
2022/03/31 16:52:05;;;;;;;;;;;;;;;;;;5049221;28;1541;-68
2022/03/31 16:54:31;;;;;;;;;;;;;;;;;;5047255;28;1973;-70
2022/03/31 16:56:58;;;;;;;;;;;;;;;;;;5048462;28;1620;-69
2022/03/31 16:59:26;;;;;;;;;;;;;;;;;;5049243;28;1062;-68
2022/03/31 17:01:53;;;;;;;;;;;;;;;;;;5049105;28;1577;-69
2022/03/31 17:04:19;;;;;;;;;;;;;;;;;;5049245;28;1393;-69
2022/03/31 17:06:45;;;;;;;;;;;;;;;;;;5048623;28;1565;-69
2022/03/31 17:09:11;;;;;;;;;;;;;;;;;;5048810;28;1573;-68
2022/03/31 17:11:39;;;;;;;;;;;;;;;;;;5048950;28;1549;-69
2022/03/31 17:14:05;;;;;;;;;;;;;;;;;;5048460;28;1542;-69
2022/03/31 17:16:33;;;;;;;;;;;;;;;;;;5048279;28;1919;-69